createdAt,value
2022-08-16T00:01:21.825Z,25.25
2022-08-16T00:03:54.384Z,25.23
2022-08-16T00:06:22.834Z,25.23
2022-08-16T00:08:52.448Z,25.19
2022-08-16T00:11:20.907Z,25.18
2022-08-16T00:13:53.041Z,25.16
2022-08-16T00:17:05.506Z,25.14
2022-08-16T00:19:13.438Z,25.13
2022-08-16T00:21:42.244Z,25.12
2022-08-16T00:24:12.255Z,25.13
2022-08-16T00:26:44.543Z,25.13
2022-08-16T00:29:15.600Z,25.14
2022-08-16T00:31:47.061Z,25.12
2022-08-16T00:34:41.401Z,25.11
2022-08-16T00:37:18.483Z,25.10
2022-08-16T00:39:47.760Z,25.07
2022-08-16T00:42:30.345Z,25.07
2022-08-16T00:45:08.501Z,25.08
2022-08-16T00:47:38.510Z,25.07
2022-08-16T00:50:11.841Z,25.09
2022-08-16T00:52:45.821Z,25.06
2022-08-16T00:55:20.414Z,25.03
2022-08-16T00:58:00.052Z,24.92
2022-08-16T01:00:30.415Z,24.95
2022-08-16T01:03:00.847Z,24.91
2022-08-16T01:05:30.473Z,24.89
2022-08-16T01:08:01.141Z,24.84
2022-08-16T01:10:33.582Z,24.84
2022-08-16T01:13:05.580Z,24.81
2022-08-16T01:15:35.137Z,24.80
2022-08-16T01:18:04.425Z,24.79
2022-08-16T01:20:36.765Z,24.77
2022-08-16T01:23:09.164Z,24.75
2022-08-16T01:25:41.940Z,24.74
2022-08-16T01:28:19.972Z,24.73
2022-08-16T01:30:51.470Z,24.72
2022-08-16T01:33:20.571Z,24.70
2022-08-16T01:35:54.319Z,24.67
2022-08-16T01:38:28.413Z,24.67
2022-08-16T01:41:02.261Z,24.66
2022-08-16T01:43:31.604Z,24.64
2022-08-16T01:46:17.464Z,24.60
2022-08-16T01:48:48.943Z,24.57
2022-08-16T01:51:18.071Z,24.56
2022-08-16T01:53:55.524Z,24.53
2022-08-16T01:56:27.062Z,24.48
2022-08-16T01:58:57.330Z,24.42
2022-08-16T02:01:26.177Z,24.45
2022-08-16T02:03:58.621Z,24.40
2022-08-16T02:06:38.834Z,24.38
2022-08-16T02:09:11.989Z,24.36
2022-08-16T02:11:48.623Z,24.33
2022-08-16T02:14:22.417Z,24.33
2022-08-16T02:16:54.747Z,24.33
2022-08-16T02:19:24.400Z,24.32
2022-08-16T02:22:34.371Z,24.28
2022-08-16T02:25:02.465Z,24.28
2022-08-16T02:27:31.900Z,24.25
2022-08-16T02:30:05.308Z,24.24
2022-08-16T02:32:49.148Z,24.20
2022-08-16T02:35:23.120Z,24.18
2022-08-16T02:37:53.016Z,24.16
2022-08-16T02:40:22.335Z,24.12
2022-08-16T02:42:52.434Z,24.10
2022-08-16T02:45:24.649Z,24.08
2022-08-16T02:48:00.693Z,24.05
2022-08-16T02:50:53.706Z,24.05
2022-08-16T02:53:30.207Z,24.05
2022-08-16T02:55:57.922Z,24.02
2022-08-16T02:58:29.085Z,24.02
2022-08-16T03:00:57.657Z,24.00
2022-08-16T03:03:26.153Z,23.99
2022-08-16T03:05:54.248Z,23.98
2022-08-16T03:08:50.533Z,23.87
2022-08-16T03:11:20.471Z,23.95
2022-08-16T03:13:56.472Z,23.91
2022-08-16T03:16:38.397Z,23.92
2022-08-16T03:19:10.266Z,23.92
2022-08-16T03:21:38.853Z,23.91
2022-08-16T03:24:29.236Z,23.89
2022-08-16T03:26:58.077Z,23.89
2022-08-16T03:29:30.113Z,23.85
2022-08-16T03:31:59.027Z,23.85
2022-08-16T03:34:27.630Z,23.81
2022-08-16T03:36:55.770Z,23.80
2022-08-16T03:39:23.617Z,23.75
2022-08-16T03:41:59.767Z,23.73
2022-08-16T03:44:43.349Z,23.71
2022-08-16T03:47:18.579Z,23.69
2022-08-16T03:49:51.984Z,23.66
2022-08-16T03:52:20.475Z,23.65
2022-08-16T03:54:57.469Z,23.63
2022-08-16T03:57:31.859Z,23.62
2022-08-16T04:00:35.401Z,23.59
2022-08-16T04:03:07.504Z,23.56
2022-08-16T04:05:36.923Z,23.54
2022-08-16T04:08:23.339Z,23.52
2022-08-16T04:10:53.243Z,23.51
2022-08-16T04:14:00.681Z,23.40
2022-08-16T04:16:27.869Z,23.43
2022-08-16T04:19:01.986Z,23.41
2022-08-16T04:21:30.807Z,23.39
2022-08-16T04:23:59.981Z,23.37
2022-08-16T04:26:30.733Z,23.34
2022-08-16T04:29:16.892Z,23.31
2022-08-16T04:31:56.354Z,23.28
2022-08-16T04:34:27.329Z,23.25
2022-08-16T04:36:55.219Z,23.22
2022-08-16T04:39:25.171Z,23.21
2022-08-16T04:42:11.059Z,23.18
2022-08-16T04:44:53.913Z,23.16
2022-08-16T04:47:25.467Z,23.15
2022-08-16T04:49:59.949Z,23.07
2022-08-16T04:52:34.829Z,23.07
2022-08-16T04:55:06.059Z,23.09
2022-08-16T04:57:33.873Z,23.04
2022-08-16T05:00:31.079Z,23.04
2022-08-16T05:02:55.713Z,23.05
2022-08-16T05:05:24.284Z,23.05
2022-08-16T05:07:59.914Z,23.07
2022-08-16T05:10:29.446Z,23.07
2022-08-16T05:12:57.767Z,23.05
2022-08-16T05:15:25.801Z,23.09
2022-08-16T05:17:58.897Z,23.10
2022-08-16T05:20:39.494Z,23.10
2022-08-16T05:23:15.094Z,23.12
2022-08-16T05:25:48.710Z,23.13
2022-08-16T05:28:17.347Z,23.13
2022-08-16T05:30:46.148Z,23.18
2022-08-16T05:33:21.180Z,23.20
2022-08-16T05:35:54.810Z,23.19
2022-08-16T05:38:32.828Z,23.20
2022-08-16T05:41:09.319Z,23.19
2022-08-16T05:43:43.714Z,23.17
2022-08-16T05:46:30.331Z,23.17
2022-08-16T05:49:09.001Z,23.17
2022-08-16T05:51:40.301Z,23.18
2022-08-16T05:54:11.307Z,23.19
2022-08-16T05:56:39.725Z,23.17
2022-08-16T05:59:08.420Z,23.17
2022-08-16T06:01:38.243Z,23.16
2022-08-16T06:04:12.961Z,23.14
2022-08-16T06:06:57.028Z,23.12
2022-08-16T06:09:25.807Z,23.12
2022-08-16T06:12:12.727Z,23.13
2022-08-16T06:14:58.435Z,23.11
2022-08-16T06:17:43.935Z,23.16
2022-08-16T06:20:23.139Z,23.19
2022-08-16T06:22:57.916Z,23.23
2022-08-16T06:25:36.697Z,23.20
2022-08-16T06:28:08.615Z,23.27
2022-08-16T06:30:43.760Z,23.26
2022-08-16T06:33:13.061Z,23.26
2022-08-16T06:35:49.273Z,23.32
2022-08-16T06:38:34.026Z,23.32
2022-08-16T06:41:04.081Z,23.34
2022-08-16T06:43:32.358Z,23.36
2022-08-16T06:46:00.603Z,23.40
2022-08-16T06:48:32.817Z,23.39
2022-08-16T06:51:03.863Z,23.45
2022-08-16T06:53:33.753Z,23.49
2022-08-16T06:56:06.046Z,23.53
2022-08-16T06:58:41.530Z,23.52
2022-08-16T07:01:09.916Z,23.57
2022-08-16T07:03:55.028Z,23.61
2022-08-16T07:06:26.812Z,23.64
2022-08-16T07:08:55.337Z,23.67
2022-08-16T07:11:45.542Z,23.70
2022-08-16T07:14:24.198Z,23.73
2022-08-16T07:16:58.297Z,23.77
2022-08-16T07:20:01.377Z,23.80
2022-08-16T07:22:39.190Z,23.86
2022-08-16T07:25:05.311Z,23.91
2022-08-16T07:27:33.640Z,23.94
2022-08-16T07:30:01.830Z,23.99
2022-08-16T07:32:31.646Z,24.00
2022-08-16T07:34:59.508Z,24.08
2022-08-16T07:37:28.670Z,24.12
2022-08-16T07:39:57.260Z,24.16
2022-08-16T07:42:34.772Z,24.19
2022-08-16T07:45:03.413Z,24.24
2022-08-16T07:47:35.459Z,24.30
2022-08-16T07:50:07.810Z,24.35
2022-08-16T07:52:42.470Z,24.40
2022-08-16T07:55:11.634Z,24.49
2022-08-16T07:57:55.891Z,24.55
2022-08-16T08:00:27.169Z,24.62
2022-08-16T08:03:00.334Z,24.70
2022-08-16T08:05:35.792Z,24.75
2022-08-16T08:08:12.011Z,24.81
2022-08-16T08:10:53.872Z,24.86
2022-08-16T08:13:42.010Z,24.90
2022-08-16T08:16:18.325Z,24.92
2022-08-16T08:18:50.265Z,24.94
2022-08-16T08:21:27.339Z,24.94
2022-08-16T08:23:57.596Z,25.00
2022-08-16T08:26:26.049Z,25.08
2022-08-16T08:29:00.951Z,25.15
2022-08-16T08:31:29.066Z,25.19
2022-08-16T08:33:58.463Z,25.25
2022-08-16T08:36:33.476Z,25.30
2022-08-16T08:40:45.951Z,25.31
2022-08-16T08:43:18.391Z,25.34
2022-08-16T08:45:48.542Z,25.36
2022-08-16T08:48:33.329Z,25.38
2022-08-16T08:51:02.876Z,25.42
2022-08-16T08:53:30.859Z,25.43
2022-08-16T08:56:00.192Z,25.49
2022-08-16T08:58:34.223Z,25.58
2022-08-16T09:01:02.981Z,25.67
2022-08-16T09:03:32.622Z,25.74
2022-08-16T09:06:00.573Z,25.82
2022-08-16T09:08:28.445Z,25.90
2022-08-16T09:11:02.410Z,25.97
2022-08-16T09:13:33.956Z,26.01
2022-08-16T09:16:02.933Z,26.03
2022-08-16T09:18:35.970Z,26.01
2022-08-16T09:21:09.548Z,26.04
2022-08-16T09:23:37.673Z,26.10
2022-08-16T09:26:45.684Z,26.19
2022-08-16T09:29:14.773Z,26.25
2022-08-16T09:31:42.707Z,26.28
2022-08-16T09:34:11.155Z,26.35
2022-08-16T09:36:46.211Z,26.40
2022-08-16T09:39:16.047Z,26.47
2022-08-16T09:41:53.149Z,26.57
2022-08-16T09:45:11.227Z,26.57
2022-08-16T09:47:11.943Z,26.58
2022-08-16T09:49:41.183Z,26.60
2022-08-16T09:52:10.149Z,26.63
2022-08-16T09:54:38.527Z,26.65
2022-08-16T09:57:12.438Z,26.69
2022-08-16T09:59:42.111Z,26.71
2022-08-16T10:02:26.176Z,26.72
2022-08-16T10:04:55.867Z,26.75
2022-08-16T10:07:23.836Z,26.81
2022-08-16T10:09:55.608Z,26.85
2022-08-16T10:12:43.426Z,26.91
2022-08-16T10:15:15.582Z,26.93
2022-08-16T10:17:45.700Z,27.01
2022-08-16T10:20:30.883Z,27.09
2022-08-16T10:23:05.138Z,27.17
2022-08-16T10:27:19.575Z,27.27
2022-08-16T10:28:32.060Z,27.37
2022-08-16T10:31:03.674Z,27.34
2022-08-16T10:33:34.026Z,27.41
2022-08-16T10:36:04.906Z,27.49
2022-08-16T10:38:36.841Z,27.50
2022-08-16T10:41:05.613Z,27.46
2022-08-16T10:43:35.597Z,27.45
2022-08-16T10:46:39.209Z,27.42
2022-08-16T10:48:53.620Z,27.45
2022-08-16T10:51:21.335Z,27.47
2022-08-16T10:54:02.925Z,27.47
2022-08-16T10:56:55.891Z,27.50
2022-08-16T10:59:45.017Z,27.54
2022-08-16T11:02:59.078Z,27.58
2022-08-16T11:05:08.563Z,27.61
2022-08-16T11:07:45.162Z,27.63
2022-08-16T11:16:25.442Z,27.80
2022-08-16T11:19:05.868Z,27.88
2022-08-16T11:22:39.620Z,27.97
2022-08-16T11:24:42.571Z,28.05
2022-08-16T11:27:23.253Z,28.08
2022-08-16T11:29:53.393Z,28.09
2022-08-16T11:32:32.379Z,28.07
2022-08-16T11:35:10.200Z,28.16
2022-08-16T11:40:32.270Z,28.23
2022-08-16T11:43:00.253Z,28.31
2022-08-16T11:45:28.119Z,28.39
2022-08-16T11:48:01.438Z,28.53
2022-08-16T11:50:33.210Z,28.57
2022-08-16T11:53:03.422Z,28.58
2022-08-16T11:55:32.620Z,28.58
2022-08-16T11:58:01.215Z,28.60
2022-08-16T12:00:33.518Z,28.66
2022-08-16T12:03:19.232Z,28.84
2022-08-16T12:05:52.109Z,29.01
2022-08-16T12:08:26.010Z,29.04
2022-08-16T12:10:55.293Z,29.09
2022-08-16T12:13:27.433Z,29.08
2022-08-16T12:15:55.921Z,29.10
2022-08-16T12:18:24.435Z,29.19
2022-08-16T12:20:55.333Z,29.26
2022-08-16T12:23:25.993Z,29.28
2022-08-16T12:25:54.126Z,29.33
2022-08-16T12:28:25.365Z,29.38
2022-08-16T12:31:05.561Z,29.40
2022-08-16T12:33:44.676Z,29.38
2022-08-16T12:36:14.550Z,29.35
2022-08-16T12:38:48.275Z,29.39
2022-08-16T12:41:24.647Z,29.40
2022-08-16T12:43:57.170Z,29.43
2022-08-16T12:46:30.998Z,29.41
2022-08-16T12:48:58.687Z,29.43
2022-08-16T12:51:57.566Z,29.45
2022-08-16T12:54:19.804Z,29.58
2022-08-16T12:56:48.225Z,29.70
2022-08-16T12:59:20.462Z,29.79
2022-08-16T13:01:50.311Z,29.90
2022-08-16T13:04:20.333Z,29.95
2022-08-16T13:06:52.540Z,29.88
2022-08-16T13:09:26.130Z,29.87
2022-08-16T13:12:04.525Z,29.82
2022-08-16T13:14:35.419Z,29.72
2022-08-16T13:17:06.487Z,29.69
2022-08-16T13:20:05.553Z,29.73
2022-08-16T13:22:24.756Z,29.82
2022-08-16T13:24:53.660Z,29.80
2022-08-16T13:28:03.274Z,29.79
2022-08-16T13:30:36.079Z,29.69
2022-08-16T13:32:59.283Z,29.60
2022-08-16T13:35:34.621Z,29.49
2022-08-16T13:38:04.158Z,29.39
2022-08-16T13:40:34.286Z,29.34
2022-08-16T13:43:02.834Z,29.33
2022-08-16T13:45:36.152Z,29.31
2022-08-16T13:48:05.528Z,29.32
2022-08-16T13:50:51.757Z,29.24
2022-08-16T13:53:24.508Z,29.19
2022-08-16T13:55:58.597Z,29.21
2022-08-16T13:58:35.772Z,29.26
2022-08-16T14:01:09.441Z,29.40
2022-08-16T14:03:38.026Z,29.58
2022-08-16T14:06:10.883Z,29.69
2022-08-16T14:08:42.165Z,29.72
2022-08-16T14:11:11.953Z,29.80
2022-08-16T14:13:40.964Z,29.82
2022-08-16T14:16:23.424Z,29.86
2022-08-16T14:18:52.736Z,29.96
2022-08-16T14:21:21.864Z,29.96
2022-08-16T14:23:53.045Z,29.92
2022-08-16T14:26:21.451Z,29.95
2022-08-16T14:28:50.994Z,29.96
2022-08-16T14:31:19.981Z,29.99
2022-08-16T14:33:47.664Z,30.02
2022-08-16T14:36:18.830Z,30.00
2022-08-16T14:38:54.447Z,30.04
2022-08-16T14:41:22.271Z,30.09
2022-08-16T14:43:50.738Z,30.19
2022-08-16T14:46:18.711Z,30.24
2022-08-16T14:48:46.415Z,30.24
2022-08-16T14:51:15.784Z,30.26
2022-08-16T14:53:45.332Z,30.30
2022-08-16T14:56:17.412Z,30.35
2022-08-16T14:59:02.514Z,30.35
2022-08-16T15:01:52.130Z,30.34
2022-08-16T15:04:39.266Z,30.38
2022-08-16T15:07:06.945Z,30.40
2022-08-16T15:09:43.863Z,30.41
2022-08-16T15:12:33.564Z,30.36
2022-08-16T15:15:12.795Z,30.33
2022-08-16T15:17:54.500Z,30.28
2022-08-16T15:20:26.123Z,30.17
2022-08-16T15:22:54.984Z,30.09
2022-08-16T15:25:27.621Z,30.04
2022-08-16T15:28:00.794Z,30.01
2022-08-16T15:30:59.878Z,30.03
2022-08-16T15:33:23.184Z,30.04
2022-08-16T15:35:55.563Z,30.07
2022-08-16T15:38:55.240Z,30.09
2022-08-16T15:41:32.442Z,30.02
2022-08-16T15:44:05.521Z,29.98
2022-08-16T15:46:56.482Z,29.97
2022-08-16T15:49:34.809Z,29.99
2022-08-16T15:52:16.323Z,30.02
2022-08-16T15:54:52.604Z,30.01
2022-08-16T15:57:21.662Z,29.99
2022-08-16T15:59:52.941Z,29.99
2022-08-16T16:02:29.641Z,30.00
2022-08-16T16:05:00.630Z,29.96
2022-08-16T16:07:30.318Z,29.89
2022-08-16T16:09:58.815Z,29.83
2022-08-16T16:12:51.429Z,29.76
2022-08-16T16:15:16.735Z,29.73
2022-08-16T16:19:05.098Z,29.65
2022-08-16T16:21:35.246Z,29.60
2022-08-16T16:24:03.314Z,29.57
2022-08-16T16:26:51.327Z,29.49
2022-08-16T16:29:19.309Z,29.44
2022-08-16T16:31:53.064Z,29.47
2022-08-16T16:34:32.457Z,29.47
2022-08-16T16:37:02.945Z,29.47
2022-08-16T16:39:32.691Z,29.46
2022-08-16T16:42:00.562Z,29.43
2022-08-16T16:44:33.648Z,29.45
2022-08-16T16:47:03.871Z,29.51
2022-08-16T16:49:33.809Z,29.54
2022-08-16T16:52:07.411Z,29.56
2022-08-16T16:54:35.578Z,29.52
2022-08-16T16:57:03.356Z,29.56
2022-08-16T16:59:30.723Z,29.52
2022-08-16T17:02:39.006Z,29.51
2022-08-16T17:04:49.802Z,29.50
2022-08-16T17:07:17.858Z,29.45
2022-08-16T17:09:51.751Z,29.41
2022-08-16T17:12:24.556Z,29.38
2022-08-16T17:14:53.316Z,29.33
2022-08-16T17:17:20.999Z,29.31
2022-08-16T17:19:50.496Z,29.29
2022-08-16T17:22:20.203Z,29.30
2022-08-16T17:24:50.319Z,29.29
2022-08-16T17:27:32.057Z,29.27
2022-08-16T17:30:01.306Z,29.27
2022-08-16T17:32:33.550Z,29.21
2022-08-16T17:35:21.407Z,29.19
2022-08-16T17:37:52.161Z,29.11
2022-08-16T17:40:25.338Z,29.10
2022-08-16T17:43:05.513Z,29.08
2022-08-16T17:45:33.247Z,29.10
2022-08-16T17:48:01.203Z,29.08
2022-08-16T17:50:30.429Z,29.06
2022-08-16T17:52:58.428Z,29.01
2022-08-16T17:55:28.911Z,28.98
2022-08-16T17:57:56.642Z,28.96
2022-08-16T18:00:25.209Z,28.93
2022-08-16T18:02:53.361Z,28.88
2022-08-16T18:05:21.310Z,28.84
2022-08-16T18:07:50.378Z,28.81
2022-08-16T18:10:31.267Z,28.76
2022-08-16T18:13:02.311Z,28.75
2022-08-16T18:15:30.984Z,28.70
2022-08-16T18:17:58.743Z,28.65
2022-08-16T18:20:44.087Z,28.62
2022-08-16T18:23:15.537Z,28.62
2022-08-16T18:25:47.178Z,28.57
2022-08-16T18:28:15.166Z,28.57
2022-08-16T18:30:45.799Z,28.56
2022-08-16T18:33:18.045Z,28.52
2022-08-16T18:35:46.035Z,28.52
2022-08-16T18:38:15.155Z,28.49
2022-08-16T18:40:43.558Z,28.47
2022-08-16T18:43:14.035Z,28.46
2022-08-16T18:45:43.388Z,28.43
2022-08-16T18:48:12.398Z,28.42
2022-08-16T18:51:04.481Z,28.37
2022-08-16T18:53:30.984Z,28.34
2022-08-16T18:56:00.007Z,28.32
2022-08-16T18:58:28.496Z,28.27
2022-08-16T19:00:57.414Z,28.24
2022-08-16T19:03:27.043Z,28.20
2022-08-16T19:05:57.903Z,28.21
2022-08-16T19:08:26.380Z,28.18
2022-08-16T19:10:55.743Z,28.16
2022-08-16T19:13:25.168Z,28.12
2022-08-16T19:15:54.373Z,28.12
2022-08-16T19:18:22.883Z,28.09
2022-08-16T19:20:51.076Z,28.06
2022-08-16T19:23:25.978Z,28.04
2022-08-16T19:25:58.397Z,28.00
2022-08-16T19:28:50.503Z,27.97
2022-08-16T19:31:22.825Z,27.95
2022-08-16T19:33:54.842Z,27.95
2022-08-16T19:36:31.805Z,27.92
2022-08-16T19:39:06.940Z,27.91
2022-08-16T19:41:39.639Z,27.88
2022-08-16T19:44:07.650Z,27.87
2022-08-16T19:46:35.723Z,27.84
2022-08-16T19:49:04.220Z,27.78
2022-08-16T19:51:31.921Z,27.77
2022-08-16T19:53:59.798Z,27.72
2022-08-16T19:56:27.594Z,27.66
2022-08-16T19:59:18.218Z,27.63
2022-08-16T20:01:45.072Z,27.58
2022-08-16T20:04:13.446Z,27.56
2022-08-16T20:06:41.293Z,27.51
2022-08-16T20:09:10.460Z,27.49
2022-08-16T20:11:42.358Z,27.45
2022-08-16T20:14:11.505Z,27.43
2022-08-16T20:16:47.121Z,27.38
2022-08-16T20:19:14.904Z,27.35
2022-08-16T20:21:42.633Z,27.32
2022-08-16T20:24:32.959Z,27.30
2022-08-16T20:26:58.365Z,27.24
2022-08-16T20:29:27.429Z,27.22
2022-08-16T20:31:55.080Z,27.20
2022-08-16T20:34:22.742Z,27.18
2022-08-16T20:36:50.472Z,27.13
2022-08-16T20:39:18.174Z,27.10
2022-08-16T20:41:46.064Z,27.05
2022-08-16T20:44:14.057Z,27.03
2022-08-16T20:46:43.244Z,27.01
2022-08-16T20:49:11.082Z,26.97
2022-08-16T20:51:49.454Z,26.97
2022-08-16T20:54:18.854Z,26.95
2022-08-16T20:56:46.589Z,26.92
2022-08-16T20:59:14.580Z,26.89
2022-08-16T21:01:46.390Z,26.55
2022-08-16T21:04:18.712Z,26.32
2022-08-16T21:06:54.113Z,26.21
2022-08-16T21:09:23.465Z,26.10
2022-08-16T21:11:53.393Z,26.03
2022-08-16T21:14:21.085Z,25.95
2022-08-16T21:16:50.368Z,25.90
2022-08-16T21:19:18.275Z,25.83
2022-08-16T21:21:45.975Z,25.79
2022-08-16T21:24:14.296Z,25.73
2022-08-16T21:26:53.869Z,25.68
2022-08-16T21:29:31.614Z,25.64
2022-08-16T21:32:12.861Z,25.59
2022-08-16T21:34:41.350Z,25.54
2022-08-16T21:37:09.179Z,25.49
2022-08-16T21:39:37.078Z,25.46
2022-08-16T21:42:09.172Z,25.45
2022-08-16T21:44:39.070Z,25.39
2022-08-16T21:47:07.038Z,25.38
2022-08-16T21:49:37.849Z,25.35
2022-08-16T21:52:06.998Z,25.31
2022-08-16T21:54:35.218Z,25.27
2022-08-16T21:57:05.520Z,25.25
2022-08-16T21:59:35.197Z,25.22
2022-08-16T22:02:02.953Z,25.16
2022-08-16T22:04:37.413Z,25.13
2022-08-16T22:07:08.039Z,25.15
2022-08-16T22:09:35.856Z,25.13
2022-08-16T22:12:03.552Z,25.12
2022-08-16T22:14:31.368Z,25.12
2022-08-16T22:16:59.131Z,25.11
2022-08-16T22:19:26.811Z,25.11
2022-08-16T22:21:55.602Z,25.10
2022-08-16T22:24:24.633Z,25.11
2022-08-16T22:26:52.343Z,25.09
2022-08-16T22:29:20.481Z,25.08
2022-08-16T22:31:48.261Z,25.09
2022-08-16T22:34:16.439Z,25.03
2022-08-16T22:36:44.207Z,25.06
2022-08-16T22:39:13.712Z,25.06
2022-08-16T22:41:45.567Z,25.04
2022-08-16T22:44:13.874Z,25.01
2022-08-16T22:46:41.565Z,25.01
2022-08-16T22:49:10.198Z,25.01
2022-08-16T22:51:38.448Z,25.00
2022-08-16T22:54:44.160Z,24.99
2022-08-16T22:56:57.334Z,24.95
2022-08-16T22:59:25.966Z,24.92
2022-08-16T23:01:53.872Z,24.91
2022-08-16T23:04:22.787Z,24.84
2022-08-16T23:06:50.504Z,24.83
2022-08-16T23:09:18.284Z,24.85
2022-08-16T23:11:46.053Z,24.85
2022-08-16T23:14:16.203Z,24.83
2022-08-16T23:16:47.382Z,24.81
2022-08-16T23:19:16.672Z,24.78
2022-08-16T23:21:47.050Z,24.77
2022-08-16T23:24:17.583Z,24.78
2022-08-16T23:26:48.822Z,24.76
2022-08-16T23:29:23.820Z,24.75
2022-08-16T23:31:53.712Z,24.73
2022-08-16T23:34:21.832Z,24.73
2022-08-16T23:36:49.685Z,24.73
2022-08-16T23:39:17.398Z,24.73
2022-08-16T23:41:45.266Z,24.74
2022-08-16T23:44:56.519Z,24.73
2022-08-16T23:47:02.105Z,24.71
2022-08-16T23:49:58.779Z,24.69
2022-08-16T23:52:18.998Z,24.68
2022-08-16T23:55:07.482Z,24.66
2022-08-16T23:57:35.150Z,24.64
